Time;durP1;ratioP1;P1;durP2;ratioP2;P2;SDS_P1;SDS_P2;PMS_P1;PMS_P2;Temp;Humidity;BMP_temperature;BMP_pressure;BME280_temperature;BME280_humidity;BME280_pressure;Samples;Min_cycle;Max_cycle;Signal;HPM_P1;HPM_P2
2022/11/01 00:00:17;;;;;;;46.33;31.95;;;14.90;99.90;;;;;;5004438;28;20026;-76
2022/11/01 00:02:43;;;;;;;47.50;32.63;;;14.90;99.90;;;;;;5017404;28;20177;-75
2022/11/01 00:05:09;;;;;;;46.30;33.85;;;14.90;99.90;;;;;;5002440;28;20481;-75
2022/11/01 00:07:35;;;;;;;43.83;32.13;;;14.90;99.90;;;;;;5002627;28;20045;-75
2022/11/01 00:10:01;;;;;;;44.80;31.70;;;14.90;99.90;;;;;;5002975;28;20100;-77
2022/11/01 00:12:29;;;;;;;42.33;31.40;;;14.90;99.90;;;;;;5004032;28;20036;-77
2022/11/01 00:14:57;;;;;;;45.42;29.95;;;14.90;99.90;;;;;;5007896;28;20473;-76
2022/11/01 00:17:23;;;;;;;44.58;32.50;;;14.90;99.90;;;;;;5002998;28;20084;-75
2022/11/01 00:19:49;;;;;;;45.53;32.17;;;14.90;99.90;;;;;;5003622;28;20025;-76
2022/11/01 00:22:14;;;;;;;45.75;32.92;;;14.90;99.90;;;;;;5004223;28;20045;-76
2022/11/01 00:24:40;;;;;;;43.53;32.45;;;14.80;99.90;;;;;;5002115;28;20934;-76
2022/11/01 00:27:06;;;;;;;47.25;34.03;;;14.80;99.90;;;;;;5002755;28;20040;-76
2022/11/01 00:29:32;;;;;;;43.67;30.77;;;14.80;99.90;;;;;;5003214;28;20128;-76
2022/11/01 00:31:58;;;;;;;48.08;32.17;;;14.80;99.90;;;;;;5003546;28;20038;-75
2022/11/01 00:34:24;;;;;;;38.83;29.02;;;14.80;99.90;;;;;;5000894;28;20030;-76
2022/11/01 00:36:50;;;;;;;46.42;30.83;;;14.90;99.90;;;;;;5003536;28;20037;-77
2022/11/01 00:39:15;;;;;;;43.35;29.73;;;14.90;99.90;;;;;;5002554;28;20025;-77
2022/11/01 00:41:41;;;;;;;39.20;28.25;;;14.90;99.90;;;;;;5003551;28;20766;-76
2022/11/01 00:44:07;;;;;;;47.30;33.70;;;14.80;99.90;;;;;;5003207;28;20060;-76
2022/11/01 00:46:33;;;;;;;39.67;29.73;;;14.90;99.90;;;;;;5022382;28;20030;-75
2022/11/01 00:48:58;;;;;;;39.83;28.77;;;14.90;99.90;;;;;;5020021;28;20026;-75
2022/11/01 00:51:25;;;;;;;41.38;28.25;;;14.90;99.90;;;;;;5006711;28;20026;-75
2022/11/01 00:53:50;;;;;;;38.22;28.52;;;15.00;99.90;;;;;;5004558;28;20057;-75
2022/11/01 00:56:16;;;;;;;39.50;27.75;;;15.00;99.90;;;;;;5003644;28;20434;-76
2022/11/01 00:58:42;;;;;;;39.28;28.92;;;15.00;99.90;;;;;;5004839;28;20081;-76
2022/11/01 01:01:08;;;;;;;41.83;29.10;;;15.00;99.90;;;;;;5002666;28;20878;-76
2022/11/01 01:03:35;;;;;;;37.45;28.13;;;15.00;99.90;;;;;;4993528;28;20500;-76
2022/11/01 01:06:00;;;;;;;39.28;29.08;;;15.00;99.90;;;;;;5004684;28;20030;-75
2022/11/01 01:08:26;;;;;;;40.38;28.48;;;15.00;99.90;;;;;;5003505;28;20041;-75
2022/11/01 01:10:52;;;;;;;36.00;26.45;;;15.00;99.90;;;;;;5004062;28;20030;-76
2022/11/01 01:13:18;;;;;;;40.55;29.77;;;15.00;99.90;;;;;;5003007;28;20019;-75
2022/11/01 01:15:44;;;;;;;41.90;30.67;;;15.00;99.90;;;;;;5000625;28;20508;-75
2022/11/01 01:18:10;;;;;;;39.60;29.48;;;15.00;99.90;;;;;;4991805;28;20025;-76
2022/11/01 01:20:36;;;;;;;40.38;29.73;;;14.90;99.90;;;;;;5001871;28;20125;-75
2022/11/01 01:23:01;;;;;;;40.03;29.77;;;14.90;99.90;;;;;;5004326;28;20026;-75
2022/11/01 01:25:27;;;;;;;41.50;28.65;;;14.90;99.90;;;;;;5003758;28;20046;-75
2022/11/01 01:27:54;;;;;;;40.70;29.42;;;14.90;99.90;;;;;;5003161;28;20046;-75
2022/11/01 01:30:20;;;;;;;36.83;28.67;;;14.80;99.90;;;;;;5001158;28;20049;-75
2022/11/01 01:32:46;;;;;;;41.58;30.63;;;14.80;99.90;;;;;;5002403;28;20758;-75
2022/11/01 01:35:11;;;;;;;41.95;29.65;;;14.80;99.90;;;;;;5001188;28;21524;-75
2022/11/01 01:37:37;;;;;;;48.13;31.58;;;14.80;99.90;;;;;;5003070;28;20486;-76
2022/11/01 01:40:03;;;;;;;41.80;30.23;;;14.70;99.90;;;;;;5000131;28;20030;-75
2022/11/01 01:42:38;;;;;;;38.97;28.88;;;14.80;99.90;;;;;;5001906;28;20112;-76
2022/11/01 01:45:04;;;;;;;38.40;28.20;;;14.80;99.90;;;;;;5001622;28;20037;-76
2022/11/01 01:47:38;;;;;;;43.05;29.75;;;14.90;99.90;;;;;;5003414;28;20030;-75
2022/11/01 01:50:12;;;;;;;41.30;28.33;;;14.90;99.90;;;;;;5000919;28;20026;-75
2022/11/01 01:52:46;;;;;;;38.20;27.70;;;14.90;99.90;;;;;;5001701;28;20284;-75
2022/11/01 01:55:15;;;;;;;35.67;27.85;;;14.90;99.90;;;;;;5002166;28;20038;-76
2022/11/01 01:57:41;;;;;;;39.85;28.73;;;14.90;99.90;;;;;;5005505;28;20037;-76
2022/11/01 02:00:08;;;;;;;40.83;29.38;;;15.00;99.90;;;;;;5001152;28;20061;-76
2022/11/01 02:02:34;;;;;;;45.22;29.85;;;15.00;99.90;;;;;;4999118;28;20114;-75
2022/11/01 02:05:42;;;;;;;39.53;28.02;;;15.00;99.90;;;;;;5001203;28;20169;-75
2022/11/01 02:08:09;;;;;;;39.60;27.17;;;15.00;99.90;;;;;;5001733;28;20187;-75
2022/11/01 02:10:35;;;;;;;43.22;29.35;;;15.00;99.90;;;;;;5003789;28;20037;-76
2022/11/01 02:13:01;;;;;;;34.28;27.10;;;15.00;99.90;;;;;;5006607;28;20638;-77
2022/11/01 02:15:39;;;;;;;41.15;29.45;;;15.00;99.90;;;;;;5000250;28;20026;-75
2022/11/01 02:18:35;;;;;;;39.78;28.83;;;14.90;99.90;;;;;;4998711;28;20026;-75
2022/11/01 02:21:26;;;;;;;40.58;28.23;;;14.90;99.90;;;;;;5000473;28;20118;-74
2022/11/01 02:24:34;;;;;;;36.50;26.75;;;14.80;99.90;;;;;;5000879;28;20116;-74
2022/11/01 02:27:30;;;;;;;39.00;27.70;;;14.80;99.90;;;;;;5000340;28;20030;-76
2022/11/01 02:30:07;;;;;;;37.88;27.35;;;14.70;99.90;;;;;;5002621;28;20030;-76
2022/11/01 02:32:56;;;;;;;37.58;27.17;;;14.70;99.90;;;;;;5000045;28;20546;-75
2022/11/01 02:35:23;;;;;;;36.65;27.02;;;14.70;99.90;;;;;;5002274;28;20034;-75
2022/11/01 02:38:10;;;;;;;41.67;28.33;;;14.70;99.90;;;;;;5004344;28;20052;-76
2022/11/01 02:40:56;;;;;;;38.97;28.95;;;14.60;99.90;;;;;;5001560;28;20121;-76
2022/11/01 02:43:29;;;;;;;41.50;27.65;;;14.70;99.90;;;;;;5001994;28;20053;-76
2022/11/01 02:45:56;;;;;;;38.72;28.38;;;14.70;99.90;;;;;;5001485;28;20033;-76
2022/11/01 02:48:24;;;;;;;43.15;30.13;;;14.60;99.90;;;;;;4999709;28;20041;-76
2022/11/01 02:50:57;;;;;;;36.72;28.90;;;14.60;99.90;;;;;;5002720;28;21029;-76
2022/11/01 02:53:23;;;;;;;36.28;26.70;;;14.60;99.90;;;;;;5001594;28;20113;-76
2022/11/01 02:55:53;;;;;;;39.40;27.88;;;14.60;99.90;;;;;;5006187;28;20109;-76
2022/11/01 02:58:24;;;;;;;35.45;27.75;;;14.50;99.90;;;;;;5004076;28;20022;-76
2022/11/01 03:00:51;;;;;;;38.60;29.30;;;14.50;99.90;;;;;;5004697;28;20042;-75
2022/11/01 03:03:16;;;;;;;39.42;29.00;;;14.50;99.90;;;;;;5005136;28;20072;-75
2022/11/01 03:05:57;;;;;;;38.88;29.67;;;14.50;99.90;;;;;;5004029;28;20107;-76
2022/11/01 03:08:40;;;;;;;36.45;28.17;;;14.50;99.90;;;;;;5005181;28;20057;-76
2022/11/01 03:11:15;;;;;;;36.28;27.27;;;14.50;99.90;;;;;;5008180;28;20072;-75
2022/11/01 03:14:13;;;;;;;39.15;27.65;;;14.50;99.90;;;;;;5010241;28;20061;-75
2022/11/01 03:16:47;;;;;;;32.40;25.63;;;14.50;99.90;;;;;;5021641;28;20096;-75
2022/11/01 03:19:37;;;;;;;39.80;28.15;;;14.50;99.90;;;;;;5016563;28;20038;-76
2022/11/01 03:22:32;;;;;;;40.90;26.60;;;14.50;99.90;;;;;;5008583;28;20073;-75
2022/11/01 03:25:38;;;;;;;37.25;27.08;;;14.50;99.90;;;;;;5006233;28;20084;-75
2022/11/01 03:28:14;;;;;;;38.75;26.05;;;14.50;99.90;;;;;;5008011;28;20069;-74
2022/11/01 03:30:44;;;;;;;35.38;26.58;;;14.50;99.90;;;;;;5008095;28;20030;-75
2022/11/01 03:33:14;;;;;;;36.83;26.80;;;14.50;99.90;;;;;;5007723;28;20117;-75
2022/11/01 03:35:43;;;;;;;35.97;27.20;;;14.50;99.90;;;;;;5005757;28;20042;-75
2022/11/01 03:38:14;;;;;;;38.15;27.08;;;14.50;99.90;;;;;;5005561;28;20025;-75
2022/11/01 03:40:43;;;;;;;35.65;27.27;;;14.50;99.90;;;;;;5020814;28;20049;-75
2022/11/01 03:43:12;;;;;;;41.40;27.63;;;14.50;99.90;;;;;;5004552;28;20038;-76
2022/11/01 03:45:39;;;;;;;38.03;28.00;;;14.50;99.90;;;;;;5005140;28;20481;-76
2022/11/01 03:48:06;;;;;;;41.70;28.50;;;14.40;99.90;;;;;;5003778;28;20108;-76
2022/11/01 03:50:32;;;;;;;36.67;27.23;;;14.40;99.90;;;;;;5021311;28;20022;-77
2022/11/01 03:52:58;;;;;;;37.47;27.73;;;14.40;99.90;;;;;;5006908;28;20042;-77
2022/11/01 03:55:25;;;;;;;40.78;29.40;;;14.40;99.90;;;;;;5006011;28;20030;-75
2022/11/01 03:57:52;;;;;;;42.42;30.23;;;14.40;99.90;;;;;;5004526;28;20117;-75
2022/11/01 04:00:28;;;;;;;36.78;27.95;;;14.40;99.90;;;;;;5004705;28;20030;-74
2022/11/01 04:02:55;;;;;;;34.45;27.02;;;14.40;99.90;;;;;;5005635;28;20042;-75
2022/11/01 04:05:23;;;;;;;35.45;26.33;;;14.40;99.90;;;;;;5018587;28;20022;-75
2022/11/01 04:07:50;;;;;;;37.55;27.20;;;14.40;99.90;;;;;;5003479;28;20046;-75
2022/11/01 04:10:16;;;;;;;39.70;27.13;;;14.40;99.90;;;;;;5004130;28;20037;-75
2022/11/01 04:12:47;;;;;;;41.90;27.80;;;14.30;99.90;;;;;;5007151;28;20080;-74
2022/11/01 04:21:10;;;;;;;35.67;26.65;;;14.30;99.90;;;;;;5003848;28;20036;-75
2022/11/01 04:23:38;;;;;;;40.58;27.92;;;14.20;99.90;;;;;;5003304;28;20037;-75
2022/11/01 04:26:04;;;;;;;35.70;26.30;;;14.20;99.90;;;;;;5001725;28;20056;-75
2022/11/01 04:28:30;;;;;;;40.47;27.95;;;14.20;99.90;;;;;;5004253;28;20478;-74
2022/11/01 04:30:56;;;;;;;39.25;26.42;;;14.20;99.90;;;;;;5004319;28;20112;-75
2022/11/01 04:33:21;;;;;;;37.85;26.92;;;14.20;99.90;;;;;;5002518;28;20040;-75
2022/11/01 04:35:47;;;;;;;44.03;29.58;;;14.20;99.90;;;;;;5004459;28;20029;-75
2022/11/01 04:38:14;;;;;;;38.92;28.65;;;14.30;99.90;;;;;;5002641;28;20419;-76
2022/11/01 04:40:41;;;;;;;41.53;30.20;;;14.20;99.90;;;;;;5002060;28;20038;-75
2022/11/01 04:43:08;;;;;;;39.47;28.25;;;14.20;99.90;;;;;;5002467;28;20045;-76
2022/11/01 04:45:34;;;;;;;40.53;29.50;;;14.20;99.90;;;;;;5002147;28;20034;-77
2022/11/01 04:48:03;;;;;;;47.60;30.77;;;14.20;99.90;;;;;;5019592;28;20437;-75
2022/11/01 04:50:29;;;;;;;44.08;29.33;;;14.20;99.90;;;;;;5002192;28;20133;-75
2022/11/01 04:52:56;;;;;;;48.33;29.85;;;14.20;99.90;;;;;;5004859;28;20550;-76
2022/11/01 04:55:21;;;;;;;48.67;29.02;;;14.20;99.90;;;;;;5005445;28;20121;-76
2022/11/01 04:57:47;;;;;;;37.83;27.92;;;14.10;99.90;;;;;;5001317;28;20112;-76
2022/11/01 05:00:13;;;;;;;58.15;29.80;;;14.10;99.90;;;;;;5002707;28;20106;-76
2022/11/01 05:02:39;;;;;;;38.78;27.42;;;14.10;99.90;;;;;;5003866;28;20030;-76
2022/11/01 05:05:07;;;;;;;45.72;29.00;;;14.10;99.90;;;;;;5004413;28;20029;-76
2022/11/01 05:07:33;;;;;;;36.65;26.88;;;14.10;99.90;;;;;;5003888;28;20125;-76
2022/11/01 05:09:58;;;;;;;37.50;26.40;;;14.10;99.90;;;;;;5004543;28;20026;-76
2022/11/01 05:12:24;;;;;;;39.50;27.92;;;14.10;99.90;;;;;;5004942;28;20062;-76
2022/11/01 05:14:50;;;;;;;39.25;26.15;;;14.00;99.90;;;;;;5001411;28;20030;-76
2022/11/01 05:17:15;;;;;;;39.72;28.83;;;14.00;99.90;;;;;;5002876;28;20032;-76
2022/11/01 05:19:41;;;;;;;39.33;26.92;;;14.00;99.90;;;;;;5000935;28;20398;-76
2022/11/01 05:22:09;;;;;;;40.85;29.58;;;14.00;99.90;;;;;;5003108;28;20029;-75
2022/11/01 05:24:34;;;;;;;39.40;27.88;;;14.00;99.90;;;;;;5005129;28;20045;-76
2022/11/01 05:27:00;;;;;;;38.15;27.80;;;14.00;99.90;;;;;;5002082;28;20026;-75
2022/11/01 05:29:26;;;;;;;44.08;29.85;;;14.00;99.90;;;;;;5002652;28;20125;-74
2022/11/01 05:31:52;;;;;;;37.58;27.85;;;13.90;99.90;;;;;;5002318;28;20049;-74
2022/11/01 05:34:18;;;;;;;43.78;31.10;;;14.00;99.90;;;;;;5001810;28;20037;-74
2022/11/01 05:36:46;;;;;;;36.10;27.75;;;13.90;99.90;;;;;;5002647;28;20134;-76
2022/11/01 05:39:12;;;;;;;38.33;28.48;;;13.90;99.90;;;;;;5009770;28;20030;-75
2022/11/01 05:41:39;;;;;;;35.35;27.15;;;13.80;99.90;;;;;;5015117;28;20045;-76
2022/11/01 05:44:05;;;;;;;45.40;29.85;;;13.90;99.90;;;;;;5006413;28;20501;-74
2022/11/01 05:46:32;;;;;;;38.95;27.52;;;13.80;99.90;;;;;;5000057;28;20029;-70
2022/11/01 05:48:58;;;;;;;40.08;28.27;;;13.80;99.90;;;;;;5000541;28;20042;-72
2022/11/01 05:51:24;;;;;;;41.00;26.70;;;13.80;99.90;;;;;;5002411;28;20026;-74
2022/11/01 05:53:50;;;;;;;38.33;28.15;;;13.80;99.90;;;;;;5002162;28;20075;-75
2022/11/01 05:56:16;;;;;;;40.08;29.13;;;13.80;99.90;;;;;;5003402;28;20032;-74
2022/11/01 05:58:42;;;;;;;38.00;26.73;;;13.80;99.90;;;;;;5001541;28;20385;-74
2022/11/01 06:01:08;;;;;;;40.92;27.48;;;13.80;99.90;;;;;;5002546;28;20030;-72
2022/11/01 06:03:35;;;;;;;42.70;27.90;;;13.70;99.90;;;;;;5003185;28;20769;-72
2022/11/01 06:06:01;;;;;;;39.47;26.02;;;13.80;99.90;;;;;;5001467;28;20033;-73
2022/11/01 06:08:27;;;;;;;39.60;28.15;;;13.80;99.90;;;;;;5002944;28;20041;-72
2022/11/01 06:10:59;;;;;;;42.65;26.77;;;13.80;99.90;;;;;;5006443;28;20396;-72
2022/11/01 06:13:24;;;;;;;34.53;26.05;;;13.80;99.90;;;;;;5001885;28;20489;-73
2022/11/01 06:15:58;;;;;;;38.03;26.45;;;13.80;99.90;;;;;;5002769;28;20046;-72
2022/11/01 06:18:23;;;;;;;36.50;27.05;;;13.90;99.90;;;;;;5003174;28;20164;-74
2022/11/01 06:20:49;;;;;;;41.13;28.13;;;13.90;99.90;;;;;;5000094;28;20112;-74
2022/11/01 06:23:14;;;;;;;41.08;27.70;;;13.90;99.90;;;;;;4999257;28;22181;-69
2022/11/01 06:25:40;;;;;;;36.65;25.40;;;13.80;99.90;;;;;;4999426;28;20084;-70
2022/11/01 06:28:05;;;;;;;39.03;27.30;;;13.90;99.90;;;;;;5003170;28;20108;-70
2022/11/01 06:30:31;;;;;;;38.78;26.20;;;13.90;99.90;;;;;;5002181;28;20534;-70
2022/11/01 06:33:00;;;;;;;37.08;26.65;;;13.90;99.90;;;;;;5002402;28;20033;-69
2022/11/01 06:35:29;;;;;;;39.47;26.98;;;14.00;99.90;;;;;;5002050;28;20042;-70
2022/11/01 06:38:06;;;;;;;35.30;26.25;;;13.90;99.90;;;;;;5001713;28;20635;-69
2022/11/01 06:40:33;;;;;;;36.58;25.45;;;13.90;99.90;;;;;;4999775;28;20297;-70
2022/11/01 06:43:01;;;;;;;33.42;26.08;;;13.90;99.90;;;;;;5002981;28;20046;-70
2022/11/01 06:45:28;;;;;;;38.50;26.45;;;14.00;99.90;;;;;;5002663;28;20034;-69
2022/11/01 06:47:54;;;;;;;33.55;25.75;;;14.00;99.90;;;;;;5001500;28;20512;-69
2022/11/01 06:50:20;;;;;;;37.72;26.27;;;14.00;99.90;;;;;;5000195;28;20121;-69
2022/11/01 06:52:46;;;;;;;36.97;26.98;;;14.00;99.90;;;;;;5000681;28;20469;-71
2022/11/01 06:55:12;;;;;;;33.15;24.27;;;14.00;99.90;;;;;;5000460;28;20030;-70
2022/11/01 06:57:37;;;;;;;42.67;27.30;;;14.10;99.90;;;;;;5000184;28;20025;-70
2022/11/01 07:00:05;;;;;;;34.35;24.60;;;14.10;99.90;;;;;;5003949;28;20397;-69
2022/11/01 07:02:31;;;;;;;36.67;27.08;;;14.10;99.90;;;;;;5001573;28;20033;-70
2022/11/01 07:04:56;;;;;;;37.50;26.00;;;14.10;99.90;;;;;;5002224;28;20034;-69
2022/11/01 07:07:23;;;;;;;35.38;24.80;;;14.20;99.90;;;;;;5001741;28;20030;-69
2022/11/01 07:09:48;;;;;;;33.10;24.27;;;14.20;99.90;;;;;;5002310;28;20645;-69
2022/11/01 07:12:14;;;;;;;39.55;26.27;;;14.20;99.90;;;;;;5002389;28;20030;-70
2022/11/01 07:14:40;;;;;;;35.75;24.70;;;14.20;99.90;;;;;;5002696;28;20051;-70
2022/11/01 07:17:05;;;;;;;34.13;25.42;;;14.30;99.90;;;;;;5001301;28;20072;-70
2022/11/01 07:19:31;;;;;;;33.80;25.17;;;14.30;99.90;;;;;;5002335;28;20056;-70
2022/11/01 07:21:56;;;;;;;40.08;24.88;;;14.40;99.90;;;;;;5003588;28;20042;-72
2022/11/01 07:24:22;;;;;;;37.20;25.15;;;14.40;99.90;;;;;;4999458;28;20061;-71
2022/11/01 07:26:48;;;;;;;35.30;25.75;;;14.50;99.90;;;;;;5000505;28;20030;-71
2022/11/01 07:29:13;;;;;;;41.42;24.50;;;14.50;99.90;;;;;;5000254;28;21338;-70
2022/11/01 07:31:39;;;;;;;38.50;24.15;;;14.60;99.90;;;;;;5000233;28;20018;-71
2022/11/01 07:34:05;;;;;;;35.38;24.08;;;14.60;99.90;;;;;;5004580;28;20045;-72
2022/11/01 07:36:31;;;;;;;32.75;24.15;;;14.60;99.90;;;;;;5000165;28;20604;-70
2022/11/01 07:38:56;;;;;;;34.05;22.02;;;14.70;99.90;;;;;;5000909;28;20101;-70
2022/11/01 07:41:22;;;;;;;32.80;22.48;;;14.70;99.90;;;;;;5005911;28;20038;-70
2022/11/01 07:43:48;;;;;;;30.50;22.77;;;14.80;99.90;;;;;;5005523;28;20049;-70
2022/11/01 07:46:13;;;;;;;35.65;23.70;;;14.80;99.90;;;;;;5004413;28;20087;-69
2022/11/01 07:48:39;;;;;;;31.58;21.58;;;14.80;99.90;;;;;;5005128;28;20112;-71
2022/11/01 07:51:04;;;;;;;32.47;23.92;;;14.80;99.90;;;;;;5003323;28;21986;-69
2022/11/01 07:53:31;;;;;;;31.30;22.20;;;14.90;99.90;;;;;;5003341;28;20039;-68
2022/11/01 07:55:59;;;;;;;26.92;21.38;;;15.00;99.90;;;;;;5005425;28;20701;-71
2022/11/01 07:58:24;;;;;;;33.33;22.52;;;15.00;99.90;;;;;;5005334;28;20038;-70
2022/11/01 08:00:50;;;;;;;29.23;21.60;;;15.00;99.90;;;;;;5003790;28;20030;-70
2022/11/01 08:03:18;;;;;;;28.30;20.60;;;15.10;99.90;;;;;;5003102;28;20026;-71
2022/11/01 08:05:44;;;;;;;28.95;22.33;;;15.20;99.90;;;;;;5007416;28;20029;-70
2022/11/01 08:08:11;;;;;;;24.95;20.45;;;15.20;99.90;;;;;;5006625;28;20088;-72
2022/11/01 08:10:37;;;;;;;29.30;21.42;;;15.20;99.90;;;;;;5005950;28;20531;-73
2022/11/01 08:13:04;;;;;;;30.77;21.58;;;15.30;99.90;;;;;;5010992;28;20069;-69
2022/11/01 08:15:30;;;;;;;27.98;20.92;;;15.30;99.90;;;;;;5002679;28;20025;-68
2022/11/01 08:17:57;;;;;;;31.02;22.33;;;15.30;99.90;;;;;;5002637;28;20034;-70
2022/11/01 08:20:24;;;;;;;26.17;20.70;;;15.40;99.90;;;;;;5001712;28;20025;-69
2022/11/01 08:22:51;;;;;;;32.00;20.40;;;15.40;99.90;;;;;;5002366;28;20627;-69
2022/11/01 08:25:17;;;;;;;26.88;20.27;;;15.40;99.90;;;;;;5002277;28;20042;-69
2022/11/01 08:27:43;;;;;;;27.05;19.98;;;15.50;99.90;;;;;;5004912;28;20049;-71
2022/11/01 08:30:09;;;;;;;27.13;19.55;;;15.50;99.90;;;;;;5003445;28;20029;-69
2022/11/01 08:32:35;;;;;;;29.48;20.40;;;15.50;99.90;;;;;;5003759;28;20057;-69
2022/11/01 08:35:00;;;;;;;28.85;20.02;;;15.50;99.90;;;;;;5002358;28;20025;-70
2022/11/01 08:37:26;;;;;;;22.42;18.67;;;15.60;99.90;;;;;;5003825;28;20018;-70
2022/11/01 08:39:52;;;;;;;27.50;19.38;;;15.60;99.90;;;;;;5002125;28;20038;-70
2022/11/01 08:42:17;;;;;;;24.92;19.27;;;15.60;99.90;;;;;;5001709;28;20511;-70
2022/11/01 08:44:43;;;;;;;27.02;18.63;;;15.70;99.90;;;;;;5004226;28;20096;-70
2022/11/01 08:47:11;;;;;;;25.70;19.00;;;15.80;99.90;;;;;;5003177;28;20025;-69
2022/11/01 08:49:36;;;;;;;27.02;17.48;;;15.80;99.90;;;;;;5004158;28;20087;-69
2022/11/01 08:52:04;;;;;;;26.27;19.08;;;15.90;99.90;;;;;;5003554;28;20030;-70
2022/11/01 08:54:32;;;;;;;21.92;18.30;;;15.90;99.90;;;;;;5003613;28;20029;-69
2022/11/01 08:56:57;;;;;;;22.88;17.50;;;16.00;99.90;;;;;;5002060;28;20416;-69
2022/11/01 08:59:23;;;;;;;25.05;17.45;;;16.10;99.90;;;;;;5002660;28;20087;-70
2022/11/01 09:01:49;;;;;;;25.00;18.00;;;16.10;99.90;;;;;;5005242;28;20064;-70
2022/11/01 09:04:16;;;;;;;20.80;15.73;;;16.20;99.90;;;;;;5001859;28;20056;-71
2022/11/01 09:06:41;;;;;;;23.35;16.05;;;16.20;99.90;;;;;;5002821;28;20095;-70
2022/11/01 09:09:09;;;;;;;20.80;15.30;;;16.30;99.90;;;;;;5003878;28;20046;-68
2022/11/01 09:11:35;;;;;;;22.13;15.48;;;16.40;99.90;;;;;;5004980;28;20019;-70
2022/11/01 09:14:00;;;;;;;24.08;16.60;;;16.40;99.90;;;;;;5004230;28;20054;-69
2022/11/01 09:16:26;;;;;;;21.60;16.42;;;16.50;99.90;;;;;;5005318;28;20072;-68
2022/11/01 09:18:52;;;;;;;28.38;15.55;;;16.60;99.90;;;;;;5007501;28;20072;-70
2022/11/01 09:21:19;;;;;;;20.85;17.00;;;16.60;99.90;;;;;;5003017;28;20073;-70
2022/11/01 09:23:47;;;;;;;21.30;16.25;;;16.70;99.90;;;;;;5003984;28;20666;-70
2022/11/01 09:26:13;;;;;;;24.48;15.52;;;16.70;99.90;;;;;;5003299;28;20041;-70
2022/11/01 09:28:40;;;;;;;18.80;14.35;;;16.80;99.90;;;;;;5003978;28;20038;-70
2022/11/01 09:31:09;;;;;;;20.85;15.35;;;16.90;99.90;;;;;;5003754;28;20024;-70
2022/11/01 09:33:36;;;;;;;21.58;15.93;;;17.00;99.90;;;;;;5004985;28;20249;-69
2022/11/01 09:36:02;;;;;;;22.17;15.40;;;17.00;99.90;;;;;;5004897;28;20022;-70
2022/11/01 09:38:27;;;;;;;15.73;13.63;;;17.10;99.90;;;;;;5003249;28;20076;-69
2022/11/01 09:41:07;;;;;;;19.52;14.93;;;17.10;99.90;;;;;;5004820;28;20091;-69
2022/11/01 09:43:36;;;;;;;18.63;13.60;;;17.20;99.90;;;;;;5003143;28;20504;-70
2022/11/01 09:46:04;;;;;;;20.08;13.70;;;17.20;99.90;;;;;;5003621;28;20091;-70
2022/11/01 09:48:32;;;;;;;19.40;13.60;;;17.30;99.90;;;;;;5010082;28;20038;-70
2022/11/01 09:51:09;;;;;;;19.05;14.32;;;17.30;99.90;;;;;;5011770;28;20044;-70
2022/11/01 09:53:34;;;;;;;20.77;14.25;;;17.40;99.90;;;;;;5011900;28;20030;-70
2022/11/01 09:56:09;;;;;;;18.35;13.70;;;17.40;99.90;;;;;;5011663;28;20029;-70
2022/11/01 09:58:43;;;;;;;21.15;13.85;;;17.50;99.90;;;;;;5010073;28;20021;-70
2022/11/01 10:01:16;;;;;;;16.15;12.80;;;17.60;99.90;;;;;;5016333;28;20034;-70
2022/11/01 10:04:01;;;;;;;17.30;13.18;;;17.60;99.90;;;;;;5016762;28;20034;-70
2022/11/01 10:06:38;;;;;;;19.48;11.93;;;17.70;99.90;;;;;;5018890;28;20042;-70
2022/11/01 10:09:23;;;;;;;16.13;12.73;;;17.70;99.90;;;;;;5019404;28;20042;-70
2022/11/01 10:12:11;;;;;;;16.05;13.38;;;17.80;99.90;;;;;;5020494;28;20056;-70
2022/11/01 10:15:08;;;;;;;18.95;12.30;;;17.80;99.90;;;;;;5018970;28;20034;-70
2022/11/01 10:17:51;;;;;;;18.08;11.70;;;17.80;99.90;;;;;;5016807;28;20022;-69
2022/11/01 10:20:26;;;;;;;16.45;11.90;;;17.80;99.90;;;;;;5008259;28;20026;-69
2022/11/01 10:22:54;;;;;;;16.73;11.75;;;17.80;99.90;;;;;;5013896;28;20101;-71
2022/11/01 10:25:22;;;;;;;16.58;12.25;;;17.80;99.90;;;;;;5014190;28;20054;-72
2022/11/01 10:27:51;;;;;;;17.40;12.63;;;17.90;99.90;;;;;;5015721;28;20038;-70
2022/11/01 10:30:17;;;;;;;18.15;13.55;;;17.90;99.90;;;;;;4997915;28;20026;-70
2022/11/01 10:33:01;;;;;;;18.30;11.75;;;17.90;99.90;;;;;;5011909;28;20026;-69
2022/11/01 10:35:41;;;;;;;16.50;10.60;;;17.90;99.90;;;;;;5010498;28;20026;-69
2022/11/01 10:38:16;;;;;;;15.85;10.93;;;17.90;99.90;;;;;;5001405;28;20107;-69
2022/11/01 10:40:51;;;;;;;;;;;18.00;99.90;;;;;;5008908;28;20365;-69
2022/11/01 10:43:20;;;;;;;18.67;11.48;;;18.00;99.90;;;;;;5010938;28;19917;-71
2022/11/01 10:45:48;;;;;;;20.48;12.38;;;18.00;99.90;;;;;;5011294;28;20026;-69
2022/11/01 10:48:31;;;;;;;15.82;10.73;;;18.00;99.90;;;;;;5012892;28;20474;-69
2022/11/01 10:51:02;;;;;;;15.98;11.05;;;18.10;99.90;;;;;;5011395;28;20024;-71
2022/11/01 10:53:32;;;;;;;13.07;10.27;;;18.10;99.90;;;;;;5012373;28;20452;-70
2022/11/01 10:56:03;;;;;;;17.05;11.35;;;18.10;99.90;;;;;;5011343;28;20120;-71
2022/11/01 10:58:36;;;;;;;15.15;11.00;;;18.20;99.90;;;;;;5010200;28;20385;-70
2022/11/01 11:01:05;;;;;;;12.95;9.77;;;18.20;99.90;;;;;;5011367;28;20030;-70
2022/11/01 11:03:31;;;;;;;15.05;10.43;;;18.20;99.90;;;;;;5010300;28;20406;-70
2022/11/01 11:06:00;;;;;;;12.60;9.27;;;18.30;99.90;;;;;;5010292;28;20030;-70
2022/11/01 11:08:26;;;;;;;19.58;9.88;;;18.30;99.90;;;;;;5009206;28;20096;-70
2022/11/01 11:10:56;;;;;;;19.27;10.50;;;18.40;99.90;;;;;;5010451;28;20444;-70
2022/11/01 11:13:24;;;;;;;14.80;8.88;;;18.40;99.90;;;;;;5010553;28;20425;-70
2022/11/01 11:15:54;;;;;;;12.68;9.25;;;18.50;99.90;;;;;;5026625;28;20548;-70
2022/11/01 11:18:26;;;;;;;12.95;8.70;;;18.50;99.90;;;;;;5015898;28;20041;-71
2022/11/01 11:20:57;;;;;;;13.95;9.32;;;18.60;99.90;;;;;;5014914;28;20030;-69
2022/11/01 11:23:26;;;;;;;13.95;9.30;;;18.70;99.90;;;;;;5015577;28;20429;-69
2022/11/01 11:25:59;;;;;;;12.73;7.95;;;18.80;99.90;;;;;;5014524;28;20489;-70
2022/11/01 11:28:29;;;;;;;13.45;8.80;;;18.90;99.90;;;;;;5014951;28;20431;-70
2022/11/01 11:31:17;;;;;;;15.73;8.52;;;19.00;99.90;;;;;;5015389;28;20053;-70
2022/11/01 11:33:50;;;;;;;13.98;8.00;;;19.10;99.90;;;;;;5026613;28;20476;-70
2022/11/01 11:36:17;;;;;;;10.75;7.53;;;19.10;99.90;;;;;;5006720;28;20022;-71
2022/11/01 11:38:47;;;;;;;15.00;7.43;;;19.20;99.90;;;;;;5003635;28;20394;-70
2022/11/01 11:41:28;;;;;;;8.73;6.97;;;19.20;99.90;;;;;;5005602;28;20037;-71
2022/11/01 11:43:54;;;;;;;11.90;6.72;;;19.30;99.90;;;;;;5002980;28;20496;-70
2022/11/01 11:46:24;;;;;;;10.15;6.35;;;19.30;99.90;;;;;;5003402;28;20030;-73
2022/11/01 11:48:52;;;;;;;11.18;6.57;;;19.30;99.90;;;;;;5009130;28;20076;-70
2022/11/01 11:51:20;;;;;;;14.77;7.05;;;19.30;99.90;;;;;;5004252;28;20033;-69
2022/11/01 11:54:09;;;;;;;10.13;5.90;;;19.30;99.90;;;;;;5002004;28;20061;-69
2022/11/01 11:56:34;;;;;;;10.23;6.63;;;19.30;99.90;;;;;;5004968;28;20053;-69
2022/11/01 11:59:21;;;;;;;10.02;6.47;;;19.30;99.90;;;;;;5021423;28;20062;-69
2022/11/01 12:01:47;;;;;;;9.73;6.95;;;19.30;99.90;;;;;;5004809;28;20029;-69
2022/11/01 12:04:15;;;;;;;11.32;6.82;;;19.30;99.90;;;;;;5004199;28;20508;-70
2022/11/01 12:06:43;;;;;;;10.13;7.03;;;19.30;99.90;;;;;;5004739;28;20393;-69
2022/11/01 12:09:46;;;;;;;11.10;6.72;;;19.30;99.90;;;;;;5005380;28;20046;-68
2022/11/01 12:12:21;;;;;;;10.63;6.15;;;19.20;99.90;;;;;;5006045;28;20034;-69
2022/11/01 12:14:47;;;;;;;9.85;6.43;;;19.20;99.90;;;;;;5006691;28;20033;-70
2022/11/01 12:17:26;;;;;;;14.27;8.32;;;19.20;99.90;;;;;;5002072;28;20041;-70
2022/11/01 12:20:06;;;;;;;12.43;6.60;;;19.20;99.90;;;;;;5005494;28;20021;-70
2022/11/01 12:22:35;;;;;;;11.15;6.57;;;19.20;99.90;;;;;;5003262;28;20041;-70
2022/11/01 12:25:09;;;;;;;9.25;6.43;;;19.20;99.90;;;;;;5004256;28;20105;-70
2022/11/01 12:27:36;;;;;;;9.25;5.82;;;19.20;99.90;;;;;;5004054;28;20076;-70
2022/11/01 12:30:13;;;;;;;11.60;6.20;;;19.20;99.90;;;;;;5005521;28;20080;-70
2022/11/01 12:33:13;;;;;;;11.27;5.97;;;19.20;99.90;;;;;;5004192;28;20038;-70
2022/11/01 12:35:44;;;;;;;9.15;5.63;;;19.20;99.90;;;;;;5005560;28;20022;-69
2022/11/01 12:38:13;;;;;;;9.38;6.57;;;19.20;99.90;;;;;;5003017;28;20528;-69
2022/11/01 12:40:44;;;;;;;11.85;6.40;;;19.20;99.90;;;;;;5002773;28;20037;-68
2022/11/01 12:43:21;;;;;;;8.93;6.10;;;19.20;99.90;;;;;;5004264;28;20054;-69
2022/11/01 12:46:00;;;;;;;11.13;7.43;;;19.20;99.90;;;;;;5005759;28;20018;-70